Alder, Washington
Current Conditions -  °F | °C
As of 4:58 AM on Friday 24 Oct 2014 (Local Time) from KGRF Reporting Station
Drizzle Drizzle  
Wind Chill: 47°   Ceiling: Unl
Heat Index: 47°   Visibility: 10mi
Dew Point: 47°   Wind: 2mph
Humidity: 99%   Direction: 30°NNE
Pressure: 30.02"   Gusts: NA
Location:  46.8687°N, 122.208°W
Report Text: KGRF 241158Z AUTO 03002KT 10SM DZ FEW150 09/09 A3002 RMK AO2 RAE1104DZB1104 SLP170 P0000 60008 70035 T00860085 10095 20085 58001 $
Loading
Personal Weather Stations






























Interactive Weather Map
Tropical Storm Tracking
New forecast layout! Learn more

10-Day Weather Forecast

Advertisements
Track Severe Weather on mobile